PAFAPABT

Guest
Details From PAFA - Fairbanks Intl
To PABT - Bettles
Flight Number -
Tags Generated
Created
Modified
Stats Distance 155 nm / 287 km
Max Altitude 0 ft / 0 m
Waypoints 2
Social Downloads 0
Likes 0
Share VATSIM

Download

Looking for another format? Having issues loading an existing format? Contact us
Advertisement - Login to hide

Notes

Generated

Route

PAFA PABT

ID Type Via Altitude Latitude Longitude Leg Dist Tot Dist Heading (true) Name
O PAFA APT - 0 ft / 0 m 64.81606˚ -147.84656˚ - 0 nm - -
O PABT APT - 0 ft / 0 m 66.90794˚ -151.53869˚ 154 nm 154 nm 326° / 322° -

Altitude Profile

Advertisement - Login to hide

PAFA

Details ICAO PAFA (FAI)
Name FAIRBANKS INTL
Region USA (Alaska)
Timezone America/Anchorage (UTC-9.0)
Stats Elevation 434 ft / 132 m (AMSL)
Location 64.813909° -147.855392°
Runways 3
Magnetic Variation 17.511° E

METAR

PAFA 122053Z 31004KT 10SM SCT085 BKN110 BKN190 M04/M07 A2974

Decode

TAF

TAF TAF PAFA 121724Z 1218/1324 00000KT P6SM BKN130 BKN200 FM130300 00000KT P6SM BKN250 WS020/19030KT FM131700 VRB04KT P6SM BKN250 WS010/10035KT

Decode

Departure Runways

ID Width Length Bearing (true) Bearing (mag) Surface Threshold Offset Overrun Length
01 75 ft / 23 m 2,892 ft / 881 m 38.04° 20.53° Gravel 0 ft / 0 m 0 ft / 0 m
01L 150 ft / 46 m 11,767 ft / 3,587 m 38.00° 20.49° Asphalt 750 ft / 229 m 0 ft / 0 m
01R 100 ft / 30 m 6,482 ft / 1,976 m 38.01° 20.50° Asphalt 0 ft / 0 m 0 ft / 0 m
19 75 ft / 23 m 2,892 ft / 881 m 218.05° 200.54° Gravel 0 ft / 0 m 0 ft / 0 m
19L 100 ft / 30 m 6,482 ft / 1,976 m 218.04° 200.53° Asphalt 0 ft / 0 m 0 ft / 0 m
19R 150 ft / 46 m 11,767 ft / 3,587 m 218.04° 200.53° Asphalt 750 ft / 229 m 0 ft / 0 m

PABT

Details ICAO PABT (BTT)
Name BETTLES
Region USA (Alaska)
Timezone America/Anchorage (UTC-9.0)
Stats Elevation 644 ft / 196 m (AMSL)
Location 66.913940° -151.529042°
Runways 1
Magnetic Variation 16.440° E

METAR

PABT 122053Z 36005KT 10SM FEW065 OVC090 M01/M04 A2975 RMK AO2 SLP090 T10111039 53007

Decode

TAF

PABT 121724Z 1218/1318 03010KT P6SM BKN060 OVC070 FM130600 03005KT 4SM BR OVC050 FM130900 01005KT P6SM BKN100

Decode

Destination Runways

ID Width Length Bearing (true) Bearing (mag) Surface Threshold Offset Overrun Length
01 150 ft / 46 m 5,174 ft / 1,577 m 32.24° 15.80° Gravel 0 ft / 0 m 0 ft / 0 m
19 150 ft / 46 m 5,174 ft / 1,577 m 212.26° 195.82° Gravel 0 ft / 0 m 0 ft / 0 m

Approach Navaids

Runway Type Ident Frequency Range Bearing (true) Bearing (mag) Slope Elevation
01 Localiser IBTT 108.70 MHz 18 nm / 33 km 32.79° 16.35° - 633 ft / 193 m (AMSL)
01 DME IBTT 108.70 MHz 18 nm / 33 km - - - 653 ft / 199 m (AMSL)

Popular Alternatives